Terminal Aerodrome Forecast
Issued by NWS

Home | Current Version | Previous Version | Text Only | Print | Product List | Glossary On
Versions: 1 2 3 4 5 6 7 8 9 10 11 12 13 14 15 16
330
FTUS45 KTFX 271509 AAA
TAFGTF
TAF AMD
KGTF 271509Z 2715/2812 24010KT P6SM SCT050 BKN090
      TEMPO 2717/2721 -SHRA SCT020 BKN050
     FM272100 27007KT P6SM VCSH SCT045 BKN050
      TEMPO 2721/2801 VRB15G25KT 5SM -TSRA BKN045CB
     FM280300 25006KT P6SM SCT050 BKN090=

USA.gov is the U.S. government's official web portal to all federal, state and local government web resources and services.